Time;durP1;ratioP1;P1;durP2;ratioP2;P2;SDS_P1;SDS_P2;PMS_P1;PMS_P2;Temp;Humidity;BMP_temperature;BMP_pressure;BME280_temperature;BME280_humidity;BME280_pressure;Samples;Min_cycle;Max_cycle;Signal;HPM_P1;HPM_P2
2024/04/05 00:02:18;;;;;;;14.43;3.08;;;12.30;85.00;;;;;;5070740;28;20025;-35
2024/04/05 00:04:44;;;;;;;13.48;2.60;;;12.30;85.00;;;;;;5071281;28;20381;-37
2024/04/05 00:07:10;;;;;;;13.52;2.47;;;12.30;84.90;;;;;;5070321;28;20397;-39
2024/04/05 00:09:35;;;;;;;13.98;2.85;;;12.30;84.90;;;;;;5070940;28;20035;-33
2024/04/05 00:12:01;;;;;;;12.15;3.28;;;12.40;84.90;;;;;;5070957;28;20370;-32
2024/04/05 00:14:27;;;;;;;13.02;2.80;;;12.30;84.90;;;;;;5071163;28;20044;-32
2024/04/05 00:16:52;;;;;;;13.43;2.83;;;12.30;84.80;;;;;;5070846;28;20402;-34
2024/04/05 00:19:18;;;;;;;11.13;2.60;;;12.40;84.90;;;;;;5070766;28;20098;-32
2024/04/05 00:21:43;;;;;;;14.70;2.90;;;12.40;84.90;;;;;;5070642;28;20029;-32
2024/04/05 00:24:09;;;;;;;16.58;3.40;;;12.30;84.80;;;;;;5070668;28;20025;-32
2024/04/05 00:26:35;;;;;;;11.70;2.35;;;12.30;84.80;;;;;;5070543;28;20041;-36
2024/04/05 00:29:01;;;;;;;10.60;2.33;;;12.30;84.90;;;;;;5070924;28;20093;-32
2024/04/05 00:31:27;;;;;;;12.57;2.63;;;12.40;85.00;;;;;;5070788;28;20028;-31
2024/04/05 00:33:54;;;;;;;12.63;2.83;;;12.40;85.60;;;;;;5070618;28;20078;-31
2024/04/05 00:36:20;;;;;;;11.90;2.70;;;12.40;84.90;;;;;;5071993;28;20028;-43
2024/04/05 00:38:45;;;;;;;12.18;2.80;;;12.40;85.00;;;;;;5073706;28;20090;-35
2024/04/05 00:41:11;;;;;;;10.88;2.85;;;12.40;85.00;;;;;;5074134;28;20063;-34
2024/04/05 00:43:36;;;;;;;17.38;3.17;;;12.40;85.50;;;;;;5073965;28;20021;-33
2024/04/05 00:46:04;;;;;;;11.35;2.50;;;12.50;85.00;;;;;;5073913;28;20021;-32
2024/04/05 00:48:31;;;;;;;11.40;2.65;;;12.50;85.60;;;;;;5073818;28;20032;-31
2024/04/05 00:50:57;;;;;;;14.57;2.95;;;12.50;85.10;;;;;;5073903;28;20029;-32
2024/04/05 00:53:31;;;;;;;11.07;2.65;;;12.40;85.20;;;;;;5074026;28;20025;-33
2024/04/05 00:55:58;;;;;;;12.32;2.70;;;12.40;85.90;;;;;;5073976;28;20384;-31
2024/04/05 00:58:24;;;;;;;8.68;2.45;;;12.40;85.40;;;;;;5073744;28;20040;-32
2024/04/05 01:00:49;;;;;;;14.00;2.83;;;12.40;85.50;;;;;;5073479;28;20037;-32
2024/04/05 01:03:15;;;;;;;13.60;3.05;;;12.50;85.60;;;;;;5073476;28;20473;-37
2024/04/05 01:05:42;;;;;;;11.13;2.75;;;12.50;85.60;;;;;;5073969;28;20526;-33
2024/04/05 01:08:08;;;;;;;14.27;3.03;;;12.60;85.70;;;;;;5073457;28;20038;-34
2024/04/05 01:10:38;;;;;;;13.02;3.00;;;12.60;85.70;;;;;;5073399;28;20101;-32
2024/04/05 01:13:05;;;;;;;13.52;2.83;;;12.60;85.80;;;;;;5073731;28;20048;-33
2024/04/05 01:15:32;;;;;;;13.80;2.67;;;12.70;85.80;;;;;;5073833;28;20310;-31
2024/04/05 01:18:01;;;;;;;14.52;3.15;;;12.70;85.90;;;;;;5073388;28;20143;-32
2024/04/05 01:20:29;;;;;;;14.10;2.63;;;12.70;85.90;;;;;;5073525;28;20024;-31
2024/04/05 01:22:58;;;;;;;11.27;2.53;;;12.70;85.90;;;;;;5073717;28;20103;-32
2024/04/05 01:25:23;;;;;;;9.68;2.72;;;12.80;86.00;;;;;;5071960;28;20078;-35
2024/04/05 01:27:49;;;;;;;13.05;2.42;;;12.80;86.00;;;;;;5073109;28;20041;-31
2024/04/05 01:30:15;;;;;;;12.07;3.20;;;12.80;86.70;;;;;;5073004;28;20123;-31
2024/04/05 01:32:57;;;;;;;15.00;3.08;;;12.80;86.10;;;;;;5073539;28;20051;-31
2024/04/05 01:35:23;;;;;;;11.32;2.58;;;12.80;86.20;;;;;;5073061;28;20170;-33
2024/04/05 01:37:49;;;;;;;14.57;3.05;;;12.90;86.20;;;;;;5072622;28;20131;-32
2024/04/05 01:40:15;;;;;;;13.35;2.53;;;12.80;86.30;;;;;;5072948;28;20063;-31
2024/04/05 01:42:40;;;;;;;13.25;2.60;;;12.80;86.30;;;;;;5073094;28;20044;-35
2024/04/05 01:45:06;;;;;;;12.00;2.72;;;12.90;86.40;;;;;;5072758;28;20025;-31
2024/04/05 01:47:32;;;;;;;16.33;2.95;;;12.90;86.50;;;;;;5071898;28;20037;-33
2024/04/05 01:49:58;;;;;;;11.88;2.60;;;12.90;86.50;;;;;;5072638;28;20397;-32
2024/04/05 01:52:24;;;;;;;11.73;2.72;;;12.90;86.50;;;;;;5073083;28;20513;-32
2024/04/05 01:54:51;;;;;;;13.70;2.83;;;12.90;86.60;;;;;;5071323;28;20056;-33
2024/04/05 01:57:17;;;;;;;11.52;2.55;;;13.00;86.70;;;;;;5072455;28;20039;-32
2024/04/05 01:59:50;;;;;;;9.88;2.22;;;12.90;86.70;;;;;;5072468;28;20032;-32
2024/04/05 02:02:16;;;;;;;12.55;2.30;;;12.90;86.80;;;;;;5072258;28;20036;-31
2024/04/05 02:04:42;;;;;;;14.10;2.70;;;13.00;86.90;;;;;;5072808;28;20481;-31
2024/04/05 02:07:08;;;;;;;12.20;2.70;;;12.90;86.90;;;;;;5072182;28;20032;-31
2024/04/05 02:09:33;;;;;;;12.98;2.75;;;13.00;87.00;;;;;;5072250;28;20032;-32
2024/04/05 02:11:59;;;;;;;11.18;2.58;;;13.00;87.10;;;;;;5072314;28;20060;-32
2024/04/05 02:14:26;;;;;;;13.95;3.17;;;13.00;87.10;;;;;;5072533;28;20063;-32
2024/04/05 02:16:55;;;;;;;11.90;2.67;;;13.00;87.20;;;;;;5072281;28;20036;-39
2024/04/05 02:19:21;;;;;;;13.50;2.70;;;13.00;87.20;;;;;;5072042;28;20032;-31
2024/04/05 02:21:46;;;;;;;11.93;2.60;;;13.00;87.30;;;;;;5072052;28;20093;-31
2024/04/05 02:24:12;;;;;;;10.82;2.45;;;13.00;87.30;;;;;;5072423;28;20025;-31
2024/04/05 02:26:37;;;;;;;11.93;2.47;;;13.00;87.40;;;;;;5072030;28;20032;-35
2024/04/05 02:29:03;;;;;;;10.48;2.25;;;13.00;87.50;;;;;;5071961;28;20043;-31
2024/04/05 02:31:28;;;;;;;15.95;2.85;;;13.00;87.50;;;;;;5071984;28;20036;-34
2024/04/05 02:33:54;;;;;;;12.10;2.65;;;12.90;88.20;;;;;;5071813;28;20457;-35
2024/04/05 02:36:19;;;;;;;11.65;2.65;;;12.90;88.30;;;;;;5071731;28;20028;-31
2024/04/05 02:38:45;;;;;;;14.75;2.70;;;12.90;87.80;;;;;;5071609;28;20412;-34
2024/04/05 02:41:11;;;;;;;13.00;2.72;;;12.90;87.80;;;;;;5071692;28;20492;-32
2024/04/05 02:43:37;;;;;;;13.27;2.83;;;12.90;87.90;;;;;;5071660;28;20020;-36
2024/04/05 02:46:03;;;;;;;8.80;2.45;;;12.80;88.00;;;;;;5070419;28;20039;-36
2024/04/05 02:48:29;;;;;;;15.77;2.75;;;12.90;88.00;;;;;;5071813;28;20445;-33
2024/04/05 02:50:55;;;;;;;13.38;3.13;;;12.90;88.00;;;;;;5071905;28;20063;-34
2024/04/05 02:53:20;;;;;;;12.55;2.85;;;12.90;88.10;;;;;;5071533;28;20452;-34
2024/04/05 02:55:46;;;;;;;11.25;2.38;;;12.90;88.10;;;;;;5071552;28;20031;-32
2024/04/05 02:58:11;;;;;;;13.73;2.60;;;12.90;88.10;;;;;;5071351;28;20119;-31
2024/04/05 03:00:38;;;;;;;12.13;2.30;;;12.90;88.10;;;;;;5071318;28;20048;-42
2024/04/05 03:03:04;;;;;;;10.65;2.35;;;12.90;88.20;;;;;;5071335;28;20025;-31
2024/04/05 03:05:31;;;;;;;9.57;2.65;;;12.90;88.20;;;;;;5071262;28;20028;-33
2024/04/05 03:07:57;;;;;;;14.73;2.83;;;12.90;88.80;;;;;;5071241;28;20040;-33
2024/04/05 03:10:22;;;;;;;13.27;2.75;;;12.90;88.20;;;;;;5070152;28;20033;-34
2024/04/05 03:12:51;;;;;;;10.43;2.65;;;12.90;88.20;;;;;;5071660;28;20033;-31
2024/04/05 03:15:16;;;;;;;9.98;2.72;;;12.90;88.30;;;;;;5071430;28;20060;-37
2024/04/05 03:17:43;;;;;;;12.50;2.60;;;12.90;88.40;;;;;;5071288;28;20056;-31
2024/04/05 03:20:12;;;;;;;15.00;2.60;;;12.90;88.40;;;;;;5071465;28;20031;-33
2024/04/05 03:22:38;;;;;;;11.15;2.60;;;12.90;88.40;;;;;;5071106;28;20031;-31
2024/04/05 03:25:04;;;;;;;14.23;2.58;;;12.80;88.40;;;;;;5071460;28;20024;-31
2024/04/05 03:27:30;;;;;;;11.23;2.42;;;12.90;88.50;;;;;;5071455;28;20508;-31
2024/04/05 03:29:55;;;;;;;9.52;2.47;;;12.80;88.50;;;;;;5070951;28;20040;-31
2024/04/05 03:32:21;;;;;;;15.77;2.70;;;12.90;88.50;;;;;;5071209;28;20119;-32
2024/04/05 03:34:47;;;;;;;15.35;2.65;;;12.80;88.40;;;;;;5071017;28;20037;-32
2024/04/05 03:37:12;;;;;;;12.77;2.40;;;12.80;88.40;;;;;;5071032;28;20045;-32
2024/04/05 03:39:38;;;;;;;11.35;2.90;;;12.90;88.50;;;;;;5070900;28;20071;-30
2024/04/05 03:42:04;;;;;;;9.38;2.50;;;12.90;88.50;;;;;;5071378;28;20096;-40
2024/04/05 03:44:30;;;;;;;14.02;3.00;;;12.90;88.50;;;;;;5071091;28;20035;-40
2024/04/05 03:46:56;;;;;;;11.45;2.60;;;12.90;88.50;;;;;;5071277;28;20033;-33
2024/04/05 03:49:22;;;;;;;14.48;3.17;;;12.90;88.50;;;;;;5071151;28;20032;-36
2024/04/05 03:51:47;;;;;;;10.68;2.63;;;12.90;88.60;;;;;;5071247;28;20028;-31
2024/04/05 03:54:13;;;;;;;11.82;2.53;;;12.90;88.60;;;;;;5071261;28;20028;-31
2024/04/05 03:56:39;;;;;;;13.27;2.75;;;13.00;88.70;;;;;;5070766;28;20044;-32
2024/04/05 03:59:05;;;;;;;12.93;2.75;;;13.00;88.80;;;;;;5071070;28;20035;-32
2024/04/05 04:01:31;;;;;;;17.35;3.00;;;13.00;88.80;;;;;;5070952;28;20027;-33
2024/04/05 04:03:57;;;;;;;12.90;2.88;;;13.00;88.90;;;;;;5069648;28;20028;-32
2024/04/05 04:06:23;;;;;;;13.40;2.58;;;13.00;89.00;;;;;;5070629;28;20035;-31
2024/04/05 04:08:48;;;;;;;9.30;2.70;;;13.00;89.10;;;;;;5070720;28;20067;-32
2024/04/05 04:11:14;;;;;;;14.50;2.80;;;13.00;89.10;;;;;;5072407;28;20116;-33
2024/04/05 04:13:39;;;;;;;11.98;2.53;;;13.00;89.20;;;;;;5074886;28;20025;-30
2024/04/05 04:16:08;;;;;;;12.77;2.55;;;13.00;89.30;;;;;;5074388;28;20062;-31
2024/04/05 04:18:34;;;;;;;9.23;2.70;;;13.00;89.40;;;;;;5074552;28;20039;-32
2024/04/05 04:20:59;;;;;;;12.93;3.17;;;13.00;90.00;;;;;;5074622;28;20025;-30
2024/04/05 04:23:25;;;;;;;9.75;2.83;;;13.00;89.60;;;;;;5074298;28;20036;-46
2024/04/05 04:25:51;;;;;;;10.32;3.10;;;13.00;89.60;;;;;;5074684;28;20020;-36
2024/04/05 04:28:17;;;;;;;11.27;2.30;;;13.00;89.70;;;;;;5074585;28;20052;-34
2024/04/05 04:30:45;;;;;;;12.32;2.55;;;13.00;89.80;;;;;;5074490;28;20060;-38
2024/04/05 04:33:14;;;;;;;9.38;2.45;;;13.00;89.90;;;;;;5074448;28;20042;-34
2024/04/05 04:35:43;;;;;;;8.43;2.10;;;13.00;90.00;;;;;;5074783;28;20477;-32
2024/04/05 04:38:09;;;;;;;8.93;2.15;;;13.00;90.00;;;;;;5074021;28;20067;-33
2024/04/05 04:40:36;;;;;;;8.13;2.47;;;13.00;90.00;;;;;;5074302;28;20511;-35
2024/04/05 04:43:01;;;;;;;12.90;2.53;;;13.00;90.10;;;;;;5073972;28;20028;-32
2024/04/05 04:45:27;;;;;;;9.93;2.60;;;13.00;90.10;;;;;;5073890;28;20107;-31
2024/04/05 04:47:52;;;;;;;8.90;2.63;;;12.90;90.20;;;;;;5074129;28;20035;-32
2024/04/05 04:50:18;;;;;;;7.22;2.15;;;12.90;90.20;;;;;;5074077;28;20028;-31
2024/04/05 04:52:44;;;;;;;10.95;2.30;;;12.90;90.30;;;;;;5073994;28;20108;-33
2024/04/05 04:55:10;;;;;;;11.10;2.67;;;12.80;90.30;;;;;;5074183;28;20036;-32
2024/04/05 04:57:39;;;;;;;9.20;2.33;;;12.80;90.40;;;;;;5072376;28;20040;-29
2024/04/05 05:00:05;;;;;;;8.48;2.80;;;12.80;90.50;;;;;;5073653;28;20028;-32
2024/04/05 05:02:30;;;;;;;10.38;2.60;;;12.80;90.50;;;;;;5073581;28;20107;-31
2024/04/05 05:04:56;;;;;;;8.80;2.47;;;12.80;90.60;;;;;;5073855;28;20059;-33
2024/04/05 05:07:22;;;;;;;9.25;2.40;;;12.80;90.60;;;;;;5073439;28;20078;-31
2024/04/05 05:09:47;;;;;;;7.78;2.20;;;12.80;90.60;;;;;;5073463;28;20481;-43
2024/04/05 05:12:13;;;;;;;9.88;2.67;;;12.80;90.70;;;;;;5073791;28;20107;-40
2024/04/05 05:14:39;;;;;;;10.23;2.33;;;12.90;90.70;;;;;;5073664;28;20188;-38
2024/04/05 05:17:08;;;;;;;11.00;2.58;;;12.80;90.80;;;;;;5073356;28;20047;-38
2024/04/05 05:19:33;;;;;;;10.25;2.55;;;12.80;90.80;;;;;;5073551;28;20017;-37
2024/04/05 05:21:59;;;;;;;8.25;2.58;;;12.80;90.90;;;;;;5073177;28;20338;-37
2024/04/05 05:24:25;;;;;;;10.32;2.45;;;12.80;90.90;;;;;;5073394;28;20047;-32
2024/04/05 05:26:50;;;;;;;11.80;2.60;;;12.80;90.90;;;;;;5073494;28;20409;-38
2024/04/05 05:29:16;;;;;;;10.88;3.03;;;12.80;91.00;;;;;;5073140;28;20447;-31
2024/04/05 05:31:42;;;;;;;8.93;2.58;;;12.80;91.00;;;;;;5073612;28;20029;-38
2024/04/05 05:34:07;;;;;;;12.23;2.67;;;12.90;91.10;;;;;;5073131;28;20036;-39
2024/04/05 05:36:33;;;;;;;6.97;2.03;;;12.80;91.10;;;;;;5071526;28;20549;-36
2024/04/05 05:39:00;;;;;;;10.35;2.85;;;12.90;91.10;;;;;;5071689;28;20046;-39
2024/04/05 05:41:27;;;;;;;9.48;2.42;;;12.90;91.50;;;;;;5072960;28;20029;-39
2024/04/05 05:43:52;;;;;;;9.90;2.40;;;12.90;91.20;;;;;;5072972;28;20033;-35
2024/04/05 05:46:18;;;;;;;10.10;2.63;;;12.90;91.30;;;;;;5072932;28;20587;-31
2024/04/05 05:48:43;;;;;;;9.43;2.60;;;12.90;91.30;;;;;;5071706;28;20031;-32
2024/04/05 05:51:09;;;;;;;6.70;2.33;;;12.90;91.30;;;;;;5072829;28;20228;-32
2024/04/05 05:53:34;;;;;;;11.00;2.90;;;12.90;91.40;;;;;;5073088;28;20131;-32
2024/04/05 05:56:02;;;;;;;10.65;2.72;;;12.90;91.40;;;;;;5072740;28;20013;-36
2024/04/05 05:58:28;;;;;;;8.32;2.38;;;13.00;91.50;;;;;;5072414;28;20111;-35
2024/04/05 06:00:54;;;;;;;8.38;2.42;;;13.00;91.50;;;;;;5072509;28;20162;-31
2024/04/05 06:03:19;;;;;;;6.25;2.17;;;13.00;91.50;;;;;;5072732;28;20467;-35
2024/04/05 06:05:51;;;;;;;7.47;2.05;;;13.10;91.50;;;;;;5072370;28;20077;-39
2024/04/05 06:08:17;;;;;;;10.27;2.90;;;13.20;91.50;;;;;;5072536;28;20047;-32
2024/04/05 06:10:53;;;;;;;10.45;2.75;;;13.10;91.50;;;;;;5072611;28;20024;-33
2024/04/05 06:13:18;;;;;;;8.57;2.10;;;13.10;91.50;;;;;;5072497;28;20028;-34
2024/04/05 06:15:44;;;;;;;9.57;2.47;;;13.10;91.50;;;;;;5072683;28;20030;-33
2024/04/05 06:18:10;;;;;;;8.05;2.17;;;13.20;91.60;;;;;;5072716;28;20158;-31
2024/04/05 06:20:35;;;;;;;8.75;2.45;;;13.20;91.60;;;;;;5070922;28;20115;-32
2024/04/05 06:23:01;;;;;;;11.70;2.83;;;13.20;91.60;;;;;;5072653;28;20024;-34
2024/04/05 06:25:27;;;;;;;6.57;2.30;;;13.30;91.70;;;;;;5072224;28;20031;-31
2024/04/05 06:27:55;;;;;;;7.47;2.55;;;13.40;91.60;;;;;;5071316;28;20044;-33
2024/04/05 06:30:21;;;;;;;8.23;2.55;;;13.50;91.60;;;;;;5072334;28;20025;-33
2024/04/05 06:32:46;;;;;;;7.03;2.67;;;13.50;91.50;;;;;;5072493;28;20393;-32
2024/04/05 06:35:12;;;;;;;9.10;2.65;;;13.50;91.50;;;;;;5071735;28;20029;-31
2024/04/05 06:37:38;;;;;;;9.40;2.42;;;13.60;91.50;;;;;;5071829;28;20054;-32
2024/04/05 06:40:04;;;;;;;4.88;2.20;;;13.60;91.50;;;;;;5071794;28;20104;-29
2024/04/05 06:42:29;;;;;;;4.65;2.10;;;13.60;91.50;;;;;;5071648;28;20012;-33
2024/04/05 06:44:55;;;;;;;4.82;2.03;;;13.70;91.50;;;;;;5071808;28;20029;-33
2024/04/05 06:47:21;;;;;;;7.90;2.17;;;13.70;91.50;;;;;;5071890;28;20066;-34
2024/04/05 06:49:47;;;;;;;8.50;2.28;;;13.70;91.50;;;;;;5071983;28;20067;-30
2024/04/05 06:52:13;;;;;;;9.38;2.22;;;13.80;91.50;;;;;;5072151;28;20044;-31
2024/04/05 06:54:43;;;;;;;8.68;2.78;;;13.80;91.50;;;;;;5071968;28;20051;-31
2024/04/05 06:57:09;;;;;;;4.88;2.10;;;13.90;91.50;;;;;;5071931;28;20346;-31
2024/04/05 06:59:36;;;;;;;8.93;2.40;;;13.90;91.50;;;;;;5070298;28;20083;-31
2024/04/05 07:02:01;;;;;;;6.90;2.30;;;13.90;91.50;;;;;;5071702;28;20153;-31
2024/04/05 07:04:27;;;;;;;6.07;2.03;;;14.00;91.50;;;;;;5071747;28;20095;-31
2024/04/05 07:06:53;;;;;;;10.10;2.38;;;14.00;91.50;;;;;;5071464;28;20553;-34
2024/04/05 07:09:23;;;;;;;7.47;2.05;;;14.10;91.50;;;;;;5071207;28;20043;-33
2024/04/05 07:11:49;;;;;;;7.93;2.40;;;14.10;91.40;;;;;;5071643;28;20029;-30
2024/04/05 07:14:18;;;;;;;9.85;3.08;;;14.20;91.40;;;;;;5070280;28;20040;-30
2024/04/05 07:16:44;;;;;;;8.02;2.33;;;14.20;91.40;;;;;;5071586;28;20033;-31
2024/04/05 07:19:11;;;;;;;5.38;2.03;;;14.30;91.40;;;;;;5071702;28;20430;-31
2024/04/05 07:21:37;;;;;;;5.35;2.33;;;14.40;91.40;;;;;;5071922;28;20044;-30
2024/04/05 07:24:04;;;;;;;6.43;2.17;;;14.40;91.30;;;;;;5071828;28;20052;-31
2024/04/05 07:26:30;;;;;;;8.38;2.05;;;14.50;91.30;;;;;;5071801;28;20023;-32
2024/04/05 07:28:55;;;;;;;10.70;2.72;;;14.50;91.30;;;;;;5071719;28;20024;-37
2024/04/05 07:31:21;;;;;;;5.60;2.35;;;14.50;91.20;;;;;;5053515;28;20029;-31
2024/04/05 07:33:46;;;;;;;5.40;2.20;;;14.60;91.20;;;;;;5071775;28;20062;-31
2024/04/05 07:36:12;;;;;;;3.97;1.98;;;14.70;91.20;;;;;;5071459;28;20032;-31
2024/04/05 07:38:37;;;;;;;5.70;1.98;;;14.70;91.20;;;;;;5071216;28;20067;-34
2024/04/05 07:41:04;;;;;;;7.75;2.15;;;14.70;91.10;;;;;;5071770;28;20029;-30
2024/04/05 07:43:30;;;;;;;8.30;2.03;;;14.70;91.10;;;;;;5071485;28;20031;-30
2024/04/05 07:45:56;;;;;;;6.13;2.03;;;14.70;91.10;;;;;;5072442;28;20390;-31
2024/04/05 07:48:22;;;;;;;3.90;2.00;;;14.70;91.10;;;;;;5075300;28;20020;-32
2024/04/05 07:50:48;;;;;;;5.93;1.95;;;14.70;91.10;;;;;;5075242;28;20017;-34
2024/04/05 07:53:13;;;;;;;6.22;1.98;;;14.70;91.10;;;;;;5075578;28;20024;-35
2024/04/05 07:55:39;;;;;;;5.13;1.85;;;14.70;91.10;;;;;;5075293;28;20100;-31
2024/04/05 07:58:05;;;;;;;7.95;2.05;;;14.70;91.10;;;;;;5075199;28;20114;-31
2024/04/05 08:00:31;;;;;;;4.20;1.70;;;14.80;91.10;;;;;;5075032;28;20028;-30
2024/04/05 08:02:57;;;;;;;5.88;1.77;;;14.80;91.10;;;;;;5074873;28;20025;-31
2024/04/05 08:05:22;;;;;;;5.45;1.60;;;14.90;91.00;;;;;;5075036;28;20099;-32
2024/04/05 08:07:48;;;;;;;4.82;1.55;;;14.90;91.00;;;;;;5075079;28;20020;-40
2024/04/05 08:10:14;;;;;;;3.50;2.03;;;14.90;91.00;;;;;;5075045;28;20051;-29
2024/04/05 08:12:40;;;;;;;4.55;1.92;;;15.00;91.00;;;;;;5075022;28;20034;-32
2024/04/05 08:15:10;;;;;;;8.07;2.15;;;15.00;91.00;;;;;;5074934;28;20291;-32
2024/04/05 08:17:36;;;;;;;6.10;2.10;;;15.00;90.90;;;;;;5074906;28;20115;-33
2024/04/05 08:20:02;;;;;;;9.05;2.50;;;14.90;90.90;;;;;;5074980;28;20485;-32
2024/04/05 08:22:27;;;;;;;6.93;1.88;;;14.90;90.90;;;;;;5074603;28;20117;-31
2024/04/05 08:24:53;;;;;;;5.22;1.90;;;14.90;90.90;;;;;;5073150;28;20074;-31
2024/04/05 08:27:19;;;;;;;4.55;1.83;;;14.80;90.90;;;;;;5074413;28;20401;-32
2024/04/05 08:29:45;;;;;;;6.10;1.70;;;14.80;91.00;;;;;;5074877;28;20016;-35
2024/04/05 08:32:11;;;;;;;4.28;1.90;;;14.80;91.00;;;;;;5075300;28;20093;-31
2024/04/05 08:34:37;;;;;;;5.40;1.60;;;14.80;91.00;;;;;;5075349;28;20024;-34
2024/04/05 08:37:04;;;;;;;3.17;1.55;;;14.80;91.00;;;;;;5073448;28;20045;-33
2024/04/05 08:39:29;;;;;;;5.65;1.60;;;14.70;90.90;;;;;;5075235;28;20096;-32
2024/04/05 08:42:11;;;;;;;6.57;1.80;;;14.70;90.90;;;;;;5075001;28;20104;-35
2024/04/05 08:44:38;;;;;;;5.00;1.80;;;14.70;91.20;;;;;;5075309;28;20082;-35
2024/04/05 08:47:06;;;;;;;5.22;1.70;;;14.70;90.90;;;;;;5074898;28;20486;-39
2024/04/05 08:49:33;;;;;;;5.03;1.67;;;14.80;90.90;;;;;;5074793;28;20028;-37
2024/04/05 08:52:00;;;;;;;5.70;1.83;;;14.80;90.90;;;;;;5075153;28;20036;-36
2024/04/05 08:54:28;;;;;;;6.10;2.00;;;14.80;90.70;;;;;;5073601;28;20077;-34
2024/04/05 08:56:55;;;;;;;7.68;1.90;;;14.80;90.70;;;;;;5074614;28;20385;-36
2024/04/05 08:59:22;;;;;;;6.85;2.20;;;14.80;90.70;;;;;;5074904;28;20460;-37
2024/04/05 09:01:51;;;;;;;3.92;1.80;;;14.80;90.70;;;;;;5074560;28;20461;-32
2024/04/05 09:04:17;;;;;;;3.95;1.45;;;14.80;90.70;;;;;;5073646;28;20017;-38
2024/04/05 09:06:43;;;;;;;7.18;1.90;;;14.80;90.70;;;;;;5074647;28;20509;-31
2024/04/05 09:09:09;;;;;;;5.03;1.90;;;14.80;90.70;;;;;;5073076;28;20170;-31
2024/04/05 09:11:35;;;;;;;4.35;1.67;;;14.80;90.80;;;;;;5074590;28;20052;-35
2024/04/05 09:14:01;;;;;;;5.72;1.88;;;14.90;90.80;;;;;;5074660;28;20029;-32
2024/04/05 09:16:27;;;;;;;5.13;1.83;;;14.90;90.70;;;;;;5074410;28;20598;-31
2024/04/05 09:19:13;;;;;;;8.48;1.88;;;14.90;90.70;;;;;;5074428;28;20100;-34
2024/04/05 09:21:42;;;;;;;3.15;1.60;;;14.90;90.70;;;;;;5073733;28;20369;-33
2024/04/05 09:24:08;;;;;;;4.75;1.55;;;14.90;90.70;;;;;;5074128;28;20388;-34
2024/04/05 09:26:34;;;;;;;6.85;1.80;;;14.90;90.70;;;;;;5074123;28;20052;-34
2024/04/05 09:29:01;;;;;;;8.90;1.70;;;14.90;90.70;;;;;;5074242;28;20047;-32
2024/04/05 09:31:28;;;;;;;6.63;1.80;;;14.90;90.70;;;;;;5074167;28;20024;-34
2024/04/05 09:34:08;;;;;;;5.90;1.75;;;14.90;90.70;;;;;;5073998;28;20078;-30
2024/04/05 09:36:35;;;;;;;6.53;1.75;;;14.90;90.70;;;;;;5073842;28;20369;-35
2024/04/05 09:39:03;;;;;;;4.28;1.60;;;14.90;90.70;;;;;;5073868;28;20029;-32
2024/04/05 09:41:32;;;;;;;4.68;1.48;;;14.90;90.80;;;;;;5073901;28;20048;-32
2024/04/05 09:43:59;;;;;;;5.10;2.05;;;14.90;90.80;;;;;;5074145;28;20028;-32
2024/04/05 09:46:26;;;;;;;4.45;1.90;;;14.90;90.80;;;;;;5073966;28;20025;-31
2024/04/05 09:48:58;;;;;;;5.57;1.50;;;14.90;90.80;;;;;;5073763;28;20103;-31
2024/04/05 09:51:44;;;;;;;3.90;1.45;;;14.90;90.80;;;;;;5073665;28;20078;-31
2024/04/05 09:54:15;;;;;;;5.28;1.60;;;14.90;90.80;;;;;;5073596;28;20017;-30
2024/04/05 09:56:42;;;;;;;3.42;1.52;;;14.90;90.90;;;;;;5073862;28;20032;-34
2024/04/05 09:59:29;;;;;;;5.60;1.80;;;14.90;90.90;;;;;;5073751;28;20013;-33
2024/04/05 10:01:55;;;;;;;4.22;1.60;;;14.90;90.90;;;;;;5073249;28;20036;-33
2024/04/05 10:04:21;;;;;;;3.78;1.90;;;15.00;90.90;;;;;;5073666;28;20028;-31
2024/04/05 10:06:47;;;;;;;6.97;1.70;;;15.00;90.90;;;;;;5073100;28;20021;-32
2024/04/05 10:09:18;;;;;;;4.45;1.60;;;15.00;91.00;;;;;;5072614;28;20483;-31
2024/04/05 10:11:49;;;;;;;3.70;1.58;;;15.00;91.00;;;;;;5073245;28;20021;-35
2024/04/05 10:14:28;;;;;;;2.67;1.60;;;15.00;91.00;;;;;;5073371;28;20024;-31
2024/04/05 10:17:08;;;;;;;6.47;2.35;;;15.00;91.00;;;;;;5073174;28;20473;-31
2024/04/05 10:19:38;;;;;;;3.63;1.50;;;15.10;91.00;;;;;;5073272;28;20017;-32
2024/04/05 10:22:05;;;;;;;4.32;1.80;;;15.20;91.00;;;;;;5072905;28;20024;-31
2024/04/05 10:24:31;;;;;;;4.40;1.55;;;15.30;91.00;;;;;;5073120;28;20090;-35
2024/04/05 10:26:58;;;;;;;4.18;1.70;;;15.40;91.00;;;;;;5072859;28;20103;-31
2024/04/05 10:29:25;;;;;;;4.03;1.90;;;15.50;91.00;;;;;;5072826;28;20382;-43
2024/04/05 10:32:00;;;;;;;2.38;1.48;;;15.70;90.90;;;;;;5073123;28;20527;-31
2024/04/05 10:34:25;;;;;;;4.47;1.90;;;15.80;90.80;;;;;;5073067;28;20086;-36
2024/04/05 10:36:52;;;;;;;4.07;1.65;;;15.90;90.70;;;;;;5072764;28;20041;-32
2024/04/05 10:39:18;;;;;;;3.67;1.63;;;15.90;90.60;;;;;;5072751;28;20052;-32
2024/04/05 10:41:46;;;;;;;5.78;2.00;;;15.90;90.60;;;;;;5072809;28;20032;-34
2024/04/05 10:44:13;;;;;;;3.80;1.60;;;16.00;90.70;;;;;;5073004;28;20534;-31
2024/04/05 10:46:39;;;;;;;3.35;1.77;;;16.00;90.60;;;;;;5071297;28;20104;-33
2024/04/05 10:49:05;;;;;;;5.53;1.70;;;16.10;90.60;;;;;;5072510;28;20047;-31
2024/04/05 10:51:31;;;;;;;3.15;1.50;;;16.20;90.60;;;;;;5072522;28;20033;-32
2024/04/05 10:54:10;;;;;;;3.47;1.65;;;16.30;90.50;;;;;;5072548;28;20448;-30
2024/04/05 10:56:40;;;;;;;3.30;1.70;;;16.30;90.30;;;;;;5072515;28;20029;-32
2024/04/05 10:59:10;;;;;;;3.95;1.40;;;16.40;90.30;;;;;;5071158;28;20249;-32
2024/04/05 11:01:36;;;;;;;5.80;1.77;;;16.50;90.20;;;;;;5072525;28;20017;-31
2024/04/05 11:04:03;;;;;;;4.32;1.73;;;16.50;90.10;;;;;;5072639;28;20468;-30
2024/04/05 11:06:29;;;;;;;4.25;1.80;;;16.50;90.10;;;;;;5072173;28;20021;-31
2024/04/05 11:08:55;;;;;;;3.05;1.42;;;16.50;90.10;;;;;;5072375;28;20035;-31
2024/04/05 11:11:21;;;;;;;2.60;1.48;;;16.40;90.00;;;;;;5072711;28;20373;-39
2024/04/05 11:13:47;;;;;;;3.92;1.55;;;16.40;90.00;;;;;;5072919;28;20500;-33
2024/04/05 11:16:15;;;;;;;3.67;1.60;;;16.40;90.00;;;;;;5072360;28;20089;-32
2024/04/05 11:18:41;;;;;;;3.40;1.60;;;16.40;90.00;;;;;;5072379;28;20214;-32
2024/04/05 11:21:14;;;;;;;3.55;1.70;;;16.40;90.00;;;;;;5072053;28;20028;-29
2024/04/05 11:23:48;;;;;;;5.10;1.92;;;16.40;89.80;;;;;;5072353;28;20457;-33
2024/04/05 11:26:30;;;;;;;3.83;1.63;;;16.50;89.80;;;;;;5072776;28;20024;-33
2024/04/05 11:29:00;;;;;;;4.30;1.93;;;16.50;89.80;;;;;;5071774;28;20665;-30
2024/04/05 11:31:26;;;;;;;3.45;1.92;;;16.60;89.70;;;;;;5072424;28;20035;-31
2024/04/05 11:33:53;;;;;;;2.33;1.60;;;16.70;89.50;;;;;;5071126;28;20528;-40
2024/04/05 11:36:19;;;;;;;3.08;1.58;;;16.70;89.40;;;;;;5072134;28;20139;-35
2024/04/05 11:38:45;;;;;;;4.90;1.40;;;16.80;89.20;;;;;;5072168;28;20401;-31
2024/04/05 11:41:11;;;;;;;2.45;1.45;;;16.90;89.00;;;;;;5072594;28;20300;-36
2024/04/05 11:43:36;;;;;;;2.50;1.27;;;16.90;88.80;;;;;;5072535;28;20020;-31
2024/04/05 11:46:03;;;;;;;2.72;1.10;;;16.90;88.70;;;;;;5072197;28;20020;-30
2024/04/05 11:48:29;;;;;;;3.67;1.58;;;16.80;88.40;;;;;;5072142;28;20036;-32
2024/04/05 11:50:55;;;;;;;2.72;1.17;;;16.80;88.30;;;;;;5071942;28;20024;-32
2024/04/05 11:53:21;;;;;;;3.80;1.35;;;16.70;88.20;;;;;;5072270;28;20108;-31
2024/04/05 11:55:46;;;;;;;2.70;1.48;;;16.70;88.30;;;;;;5071935;28;20138;-32
2024/04/05 11:58:12;;;;;;;3.35;1.77;;;16.60;88.30;;;;;;5070292;28;20033;-31
2024/04/05 12:00:38;;;;;;;3.30;1.20;;;16.60;88.40;;;;;;5071991;28;20078;-34
2024/04/05 12:03:03;;;;;;;4.88;1.65;;;16.50;88.60;;;;;;5071808;28;20029;-32
2024/04/05 12:05:29;;;;;;;3.55;1.23;;;16.50;88.70;;;;;;5071736;28;20020;-34
2024/04/05 12:07:54;;;;;;;4.50;1.40;;;16.40;88.70;;;;;;5071871;28;20035;-32
2024/04/05 12:10:20;;;;;;;3.03;1.13;;;16.40;88.80;;;;;;5071775;28;20032;-30
2024/04/05 12:12:45;;;;;;;5.20;1.48;;;16.30;88.80;;;;;;5071853;28;20033;-31
2024/04/05 12:15:11;;;;;;;6.22;1.30;;;16.30;88.90;;;;;;5071888;28;20033;-31
2024/04/05 12:17:37;;;;;;;4.28;1.30;;;16.20;89.00;;;;;;5071908;28;20028;-31
2024/04/05 12:20:05;;;;;;;5.05;1.77;;;16.10;88.90;;;;;;5072030;28;20108;-32
2024/04/05 12:22:31;;;;;;;2.22;1.05;;;16.10;89.00;;;;;;5071781;28;20060;-31
2024/04/05 12:24:56;;;;;;;5.18;1.70;;;16.10;89.30;;;;;;5071740;28;20098;-32
2024/04/05 12:27:22;;;;;;;3.13;1.42;;;16.00;89.20;;;;;;5071763;28;20381;-33
2024/04/05 12:29:48;;;;;;;0.98;0.93;;;16.00;89.30;;;;;;5071493;28;20130;-31
2024/04/05 12:32:16;;;;;;;4.70;1.80;;;15.90;89.40;;;;;;5073191;28;20025;-36
2024/04/05 12:34:42;;;;;;;2.13;1.27;;;15.90;89.30;;;;;;5075671;28;20504;-32
2024/04/05 12:37:09;;;;;;;2.40;1.50;;;15.90;89.50;;;;;;5074984;28;20049;-32
2024/04/05 12:39:38;;;;;;;3.83;1.67;;;15.90;89.50;;;;;;5075306;28;20020;-30
2024/04/05 12:42:04;;;;;;;3.20;1.42;;;15.90;89.50;;;;;;5075213;28;20021;-30